This is the latest recevied weather packets stored in our database for station/object IW0RQH-13. If no packets are shown the sender has not sent any weather packets the latest 10 day(s).
| Time | Temp. | Humidity | Pressure | Rain* | Wind** | Luminosity | Snow |
|---|---|---|---|---|---|---|---|
| 1777966570 | 12.78° C | 90% | 1015.2 hPa | 0.51 mm | - | 55 W/m² | - |
| 1777964946 | 12.78° C | 89% | 1015.2 hPa | 1.27 mm | - | 54 W/m² | - |
| 1777963524 | 12.78° C | 89% | 1015.2 hPa | 1.27 mm | - | 34 W/m² | - |
| 1777961345 | 12.78° C | 86% | 1014.5 hPa | 0.25 mm | - | 35 W/m² | - |
| 1777956303 | 12.22° C | 89% | 1014.4 hPa | 2.29 mm | - | 18 W/m² | - |
| 1777953604 | 12.78° C | 84% | 1015.1 hPa | 0.51 mm | - | 0 W/m² | - |
| 1777952163 | 12.78° C | 79% | 1015 hPa | 0 mm | - | 0 W/m² | - |
| 1777950003 | 12.78° C | 78% | 1015 hPa | 0 mm | - | 0 W/m² | - |
| 1777949643 | 12.78° C | 77% | 1015.2 hPa | 0 mm | - | 0 W/m² | - |
| 1777948025 | 12.78° C | 76% | 1015.2 hPa | 0 mm | - | 0 W/m² | - |
| 1777946409 | 13.33° C | 76% | 1015.2 hPa | 0 mm | - | 0 W/m² | - |
| 1777945504 | 13.33° C | 74% | 1015.6 hPa | 0 mm | - | 0 W/m² | - |
| 1777942807 | 13.33° C | 74% | 1015.7 hPa | 0 mm | - | 0 W/m² | - |
| 1777941905 | 13.33° C | 74% | 1015.8 hPa | 0 mm | - | 0 W/m² | - |
| 1777940283 | 13.33° C | 73% | 1016.2 hPa | 0 mm | - | 0 W/m² | - |
| 1777939206 | 13.33° C | 74% | 1016.5 hPa | 0 mm | - | 0 W/m² | - |
| 1777937224 | 13.33° C | 74% | 1016.9 hPa | 0 mm | - | 0 W/m² | - |
| 1777936144 | 12.78° C | 75% | 1017 hPa | 0 mm | - | 0 W/m² | - |
| 1777932026 | 13.89° C | 70% | 1017.6 hPa | 0 mm | - | 0 W/m² | - |
| 1777928046 | 16.11° C | 60% | 1017.6 hPa | 0 mm | - | 0 W/m² | - |
| 1777922824 | 16.67° C | 63% | 1017.3 hPa | 0 mm | - | 0 W/m² | - |
| 1777910044 | 20° C | 45% | 1016.7 hPa | 0 mm | - | 125 W/m² | - |
| 1777908964 | 20° C | 42% | 1016.8 hPa | 0 mm | - | 146 W/m² | - |
| 1777904851 | 20.56° C | 41% | 1016.7 hPa | 0 mm | - | 278 W/m² | - |
| 1777903206 | 21.11° C | 40% | 1016.8 hPa | 0 mm | - | 304 W/m² | - |
* Rain latest hour (hover to see other rain measurements)
** Current wind speed in m/s (hover to see current wind gust speed)